This demonstration page uses our WeatherBlox Daily Observations layout. Learn more.

Left ArrowRight Arrow

Hourly Observations for April 4, 2020

Temp ( °F °C ) Dew Point ( °F °C ) Humidity (%) Winds ( mph kmh ) Pressure ( in mb ) Visibility ( mi km ) Precip ( " mm )
12:51 am 00:51 Clear 61 16.1 30 -1.1 31 31 NNW 7 11 29.75 1007 10 16.0934 0 0
1:51 am 01:51 Clear 60 15.6 31 -0.6 33 33 NNW 9 15 29.74 1007 10 16.0934 0 0
2:51 am 02:51 Clear 51 10.6 31 -0.6 46 46 ESE 5 7 29.75 1008 10 16.0934 0 0
3:51 am 03:51 Clear 50 10 31 -0.6 48 48 ENE 7 11 29.76 1008 10 16.0934 0 0
4:51 am 04:51 Clear 48 8.9 32 0 54 54 SE 7 11 29.75 1008 10 16.0934 0 0
5:51 am 05:51 Clear 44 6.7 32 0 63 63 Calm 29.78 1009 10 16.0934 0 0
6:51 am 06:51 Sunny 50 10 33 0.6 52 52 Calm 29.8 1009 10 16.0934 0 0
7:51 am 07:51 Sunny 61 16.1 35 1.7 38 38 E 6 9 29.8 1009 10 16.0934 0 0
8:51 am 08:51 Sunny 65 18.3 31 -0.6 28 28 SE 7 11 29.8 1009 10 16.0934 0 0
9:51 am 09:51 Sunny 69 20.6 31 -0.6 24 24 SE 7 11 29.81 1009 10 16.0934 0 0
10:51 am 10:51 Sunny 72 22.2 26 -3.3 18 18 SE 8 13 29.8 1009 10 16.0934 0 0
11:51 am 11:51 Sunny 76 24.4 23 -5 14 14 E 13 20 29.76 1008 10 16.0934 0 0
12:51 pm 12:51 Sunny 77 25 20 -6.7 12 12 VRB 6 9 29.72 1007 10 16.0934 0 0
1:51 pm 13:51 Sunny 77 25 19 -7.2 11 11 ESE 3 6 29.7 1006 10 16.0934 0 0
2:51 pm 14:51 Sunny 79 26.1 21 -6.1 11 11 NW 10 17 29.69 1005 10 16.0934 0 0
3:51 pm 15:51 Sunny 79 26.1 23 -5 12 12 VRB 5 7 29.68 1005 10 16.0934 0 0
4:51 pm 16:51 Sunny 79 26.1 20 -6.7 11 11 WSW 8 13 29.66 1005 10 16.0934 0 0
5:51 pm 17:51 Sunny 78 25.6 14 -10 9 9 W 15 24 29.68 1005 10 16.0934 0 0
6:51 pm 18:51 Clear 74 23.3 18 -7.8 12 12 WNW 15 24 29.68 1005 10 16.0934 0 0
7:51 pm 19:51 Clear 65 18.3 21 -6.1 19 19 NW 9 15 29.71 1006 10 16.0934 0 0
8:51 pm 20:51 Clear 63 17.2 21 -6.1 20 20 WNW 9 15 29.73 1007 10 16.0934 0 0
9:51 pm 21:51 Clear 62 16.7 22 -5.6 21 21 NW 10 17 29.73 1007 10 16.0934 0 0
10:51 pm 22:51 Clear 61 16.1 22 -5.6 22 22 NW 9 15 29.74 1007 10 16.0934 0 0
11:51 pm 23:51 Clear 59 15 24 -4.4 26 26 SE 5 7 29.76 1008 10 16.0934 0 0

Powered by AerisWeather